Aeroporto :
LOGIN :

Iscrizione | Disclaimer

   EN    FR    IT 

 










Sommario :    VFR   VFR Marginale   IFR   IFR Intensivo   IFR Molto Intensivo
Visibilità : 
Base nubi : 
>= 8 km
>= 3000ft
5 / 8 km
1000 / 3000 ft
1500m / 5 km
500 / 1000 ft
800 / 1500m
200 / 500 ft
< 800m
< 200 ft
Simboli :   Temporali  Nebbia  Neve Forte  Precipitazioni Forti  Vento > 20 kt
SIGMETs :   Varie  Temporali  Ghiacco  Turbolenza  Onda orograficha  Ceneri Vulcaniche






- Altitudine del aeroporto : 325 ft
- Codice IATA : BES


LFRB - Brest

ULTIMO METAR :
  • 150730Z AUTO 05003KT 8000 RA FEW009/// OVC027/// ///CB 04/04 Q1004 TEMPO 36015G25KT 3000 SHRA SCT008 BKN012CB

METARs OBSOLETI :
  • 150700Z AUTO 36003KT 330V030 6000 RA FEW009/// SCT015/// BKN024/// ///CB 05/04 Q1003 TEMPO 36015G25KT 3000 SHRA SCT008 BKN012CB
  • 150630Z AUTO 35003KT 5000 RA BR FEW006/// BKN030/// BKN036/// ///CB 05/04 Q1003 TEMPO 36015G25KT TSGSRA SCT008 BKN012CB
  • 150600Z AUTO 03006KT 4700 RA BR FEW006/// SCT010/// BKN025/// ///CB 05/04 Q1003 TEMPO 36015G25KT TSGSRA SCT008 BKN012CB
  • 150530Z AUTO 01006KT 350V050 5000 -RA BR FEW012/// SCT019/// BKN029/// ///CB 05/04 Q1003 TEMPO 36015G25KT TSGSRA SCT008 BKN012CB
  • 150500Z AUTO 02006KT 350V060 4900 RA BR FEW012/// SCT019/// OVC029/// ///CB 05/05 Q1002 TEMPO 36015G25KT TSGSRA BKN014CB

TAF TAF LFRB
Valido dal 15 a 06 ore il 16 a 12 ore UTC


150500Z 1506/1612 35010KT 9999 SCT016 BKN025
TEMPO 1506/1515 36015G25KT 3000 SHRA BKN014CB
PROB30
TEMPO 1506/1512 TSGSRA SCT008 BKN012CB
PROB40
TEMPO 1515/1612 3000 SHRA SCT015TCU BKN020
BECMG 1521/1524 34015G25KT
ATIS : +33 2 98 32 02 71



MetMap, La meteo Aeronautica in un colpo d'occhio ! - Copyright ORBIFLY Dicembre 2007 - Disclaimer

ORBIFLY MET'MAP TEAM :

Programmazione e sviluppo : Alexandra Zaïnal
Concezione e sviluppo : Baudouin d'Aumeries
Co-Programmazione e sviluppo : Marc-Olivier Méhu
Supporto tecnico e logistico : Manuel Goepfert
Aiuto per la traduzione : Arnaldo La Scala

Contatto : metmap@orbifly.com




FONTI E CREDITI :

   NOAA